Terminal Aerodrome Forecast
Issued by NWS Sterling, VA

Home | Current Version | Previous Version | Text Only | Print | Product List | Glossary On
Versions: 1 2 3 4 5 6 7 8 9 10 11 12 13
000
FTUS41 KLWX 021120
TAFCHO
TAF
KCHO 021120Z 0212/0312 VRB03KT 3SM BR SCT070 BKN250
     FM021300 00000KT P6SM SCT070 BKN250
     FM021600 00000KT P6SM VCTS BKN060CB BKN080
     FM021900 00000KT 6SM -TSRA BKN060CB BKN080
     FM022200 VRB03KT P6SM VCTS BKN060CB BKN080
     FM030000 29004KT P6SM BKN060 BKN080
     FM030700 VRB03KT 5SM BR FEW080 SCT250=

USA.gov is the U.S. government's official web portal to all federal, state and local government web resources and services.